createdAt,value
2023-01-28T00:03:28.601Z,23.67
2023-01-28T00:13:31.802Z,13.68
2023-01-28T00:23:36.245Z,13.27
2023-01-28T00:33:38.237Z,17.55
2023-01-28T00:43:41.011Z,18.08
2023-01-28T00:53:44.759Z,20.58
2023-01-28T01:03:47.490Z,20.55
2023-01-28T01:13:57.355Z,17.73
2023-01-28T01:23:59.708Z,19.23
2023-01-28T01:34:01.657Z,21.15
2023-01-28T01:44:05.764Z,19.88
2023-01-28T01:54:08.281Z,14.10
2023-01-28T02:04:19.763Z,14.65
2023-01-28T02:14:30.975Z,18.92
2023-01-28T02:24:51.258Z,13.45
2023-01-28T02:35:30.581Z,8.55
2023-01-28T02:45:34.198Z,11.70
2023-01-28T02:55:40.330Z,13.43
2023-01-28T03:05:56.535Z,13.20
2023-01-28T03:15:58.493Z,17.63
2023-01-28T03:26:03.606Z,11.68
2023-01-28T03:36:07.852Z,16.42
2023-01-28T03:46:22.692Z,16.13
2023-01-28T03:56:24.600Z,11.18
2023-01-28T04:06:29.526Z,14.68
2023-01-28T04:16:51.702Z,11.40
2023-01-28T04:26:56.175Z,15.60
2023-01-28T04:36:58.488Z,15.32
2023-01-28T04:47:23.491Z,12.45
2023-01-28T04:57:38.158Z,15.50
2023-01-28T05:07:42.795Z,13.93
2023-01-28T05:17:46.142Z,17.02
2023-01-28T05:27:51.719Z,14.88
2023-01-28T05:37:53.721Z,12.52
2023-01-28T05:47:55.826Z,10.35
2023-01-28T05:58:13.738Z,10.93
2023-01-28T06:08:15.903Z,8.00
2023-01-28T06:18:18.073Z,6.75
2023-01-28T06:28:20.421Z,10.23
2023-01-28T06:38:22.319Z,6.07
2023-01-28T06:48:25.176Z,11.00
2023-01-28T06:58:33.338Z,8.68
2023-01-28T07:08:35.279Z,11.60
2023-01-28T07:18:37.180Z,7.97
2023-01-28T07:28:39.078Z,11.73
2023-01-28T07:38:40.927Z,12.45
2023-01-28T07:48:42.666Z,13.70
2023-01-28T07:58:44.481Z,12.77
2023-01-28T08:08:49.480Z,14.32
2023-01-28T08:18:52.477Z,13.27
2023-01-28T08:28:54.908Z,9.57
2023-01-28T08:38:56.679Z,15.25
2023-01-28T08:48:58.445Z,11.48
2023-01-28T08:59:00.342Z,15.15
2023-01-28T09:09:02.776Z,11.02
2023-01-28T09:19:04.637Z,14.23
2023-01-28T09:29:06.493Z,13.45
2023-01-28T09:39:08.378Z,11.88
2023-01-28T09:49:39.807Z,12.93
2023-01-28T09:59:41.769Z,11.40
2023-01-28T10:09:46.684Z,9.55
2023-01-28T10:20:06.119Z,15.48
2023-01-28T10:30:22.107Z,11.13
2023-01-28T10:40:24.062Z,13.38
2023-01-28T11:36:21.280Z,10.52
2023-01-28T11:47:02.087Z,14.43
2023-01-28T12:31:50.124Z,7.55
2023-01-28T12:42:41.920Z,8.70
2023-01-28T12:52:50.946Z,7.97
2023-01-28T13:03:16.468Z,9.33
2023-01-28T13:13:32.260Z,7.82
2023-01-28T13:23:43.458Z,8.43
2023-01-28T13:34:02.185Z,10.77
2023-01-28T13:44:04.027Z,12.73
2023-01-28T13:54:19.103Z,18.13
2023-01-28T14:04:50.295Z,10.15
2023-01-28T14:15:26.417Z,17.25
2023-01-28T14:25:34.039Z,18.27
2023-01-28T14:35:39.536Z,11.90
2023-01-28T14:46:11.781Z,17.17
2023-01-28T14:56:22.030Z,18.55
2023-01-28T15:06:30.391Z,21.02
2023-01-28T15:16:33.938Z,16.02
2023-01-28T15:26:36.988Z,20.52
2023-01-28T15:36:44.140Z,13.38
2023-01-28T15:46:46.129Z,15.90
2023-01-28T15:56:47.964Z,24.88
2023-01-28T16:06:50.524Z,23.75
2023-01-28T16:16:54.169Z,21.55
2023-01-28T16:27:01.132Z,19.58
2023-01-28T16:37:08.917Z,26.63
2023-01-28T16:47:10.904Z,23.17
2023-01-28T16:57:18.669Z,20.35
2023-01-28T17:07:20.526Z,30.77
2023-01-28T17:17:22.468Z,28.80
2023-01-28T17:27:24.316Z,41.40
2023-01-28T17:37:26.154Z,27.33
2023-01-28T17:47:28.050Z,23.98
2023-01-28T17:57:31.226Z,19.70
2023-01-28T18:07:33.211Z,31.92
2023-01-28T18:17:35.494Z,24.80
2023-01-28T18:27:38.781Z,23.30
2023-01-28T18:37:40.746Z,15.95
2023-01-28T18:47:43.374Z,20.80
2023-01-28T18:57:45.301Z,23.05
2023-01-28T19:07:48.210Z,22.25
2023-01-28T19:17:50.589Z,18.35
2023-01-28T19:28:13.907Z,12.55
2023-01-28T19:38:16.284Z,13.88
2023-01-28T19:48:18.026Z,18.33
2023-01-28T19:58:19.826Z,16.20
2023-01-28T20:08:22.785Z,13.98
2023-01-28T20:18:25.950Z,13.73
2023-01-28T20:28:30.743Z,10.50
2023-01-28T20:38:38.109Z,16.98
2023-01-28T20:48:39.949Z,15.38
2023-01-28T20:58:41.850Z,18.95
2023-01-28T21:08:44.304Z,12.93
2023-01-28T21:18:46.446Z,26.13
2023-01-28T21:28:48.302Z,17.70
2023-01-28T21:38:55.970Z,15.85
2023-01-28T21:48:59.985Z,15.50
2023-01-28T21:59:02.007Z,20.38
2023-01-28T22:09:04.202Z,18.08
2023-01-28T22:19:06.303Z,16.02
2023-01-28T22:29:09.123Z,13.48
2023-01-28T22:39:16.629Z,10.40
2023-01-28T22:49:18.486Z,14.40
2023-01-28T22:59:20.327Z,19.88
2023-01-28T23:09:22.325Z,14.07
2023-01-28T23:19:24.331Z,10.43
2023-01-28T23:29:28.357Z,21.23
2023-01-28T23:39:30.697Z,11.60
2023-01-28T23:49:32.828Z,15.38
2023-01-28T23:59:34.671Z,16.00
